createdAt,value
2017-09-22T00:00:06.382Z,1013.85
2017-09-22T00:01:06.353Z,1013.86
2017-09-22T00:02:01.443Z,1013.85
2017-09-22T00:02:55.450Z,1013.82
2017-09-22T00:03:55.918Z,1013.84
2017-09-22T00:04:50.552Z,1013.83
2017-09-22T00:05:56.547Z,1013.84
2017-09-22T00:06:51.602Z,1013.88
2017-09-22T00:07:45.751Z,1013.88
2017-09-22T00:08:45.640Z,1013.90
2017-09-22T00:09:45.724Z,1013.88
2017-09-22T00:10:40.738Z,1013.86
2017-09-22T00:11:34.746Z,1013.85
2017-09-22T00:12:35.217Z,1013.82
2017-09-22T00:13:29.869Z,1013.80
2017-09-22T00:14:24.828Z,1013.83
2017-09-22T00:15:25.850Z,1013.81
2017-09-22T00:16:25.873Z,1013.77
2017-09-22T00:17:25.927Z,1013.80
2017-09-22T00:18:21.424Z,1013.77
2017-09-22T00:19:15.032Z,1013.75
2017-09-22T00:20:14.996Z,1013.75
2017-09-22T00:21:10.065Z,1013.75
2017-09-22T00:22:10.522Z,1013.73
2017-09-22T00:23:04.085Z,1013.70
2017-09-22T00:24:04.151Z,1013.74
2017-09-22T00:24:59.188Z,1013.73
2017-09-22T00:25:54.210Z,1013.73
2017-09-22T00:26:55.204Z,1013.72
2017-09-22T00:27:55.652Z,1013.71
2017-09-22T00:28:50.254Z,1013.74
2017-09-22T00:29:50.297Z,1013.72
2017-09-22T00:30:44.361Z,1013.73
2017-09-22T00:31:44.326Z,1013.70
2017-09-22T00:32:39.356Z,1013.72
2017-09-22T00:33:34.395Z,1013.72
2017-09-22T00:34:34.443Z,1013.69
2017-09-22T00:35:29.470Z,1013.68
2017-09-22T00:36:24.568Z,1013.69
2017-09-22T00:37:25.565Z,1013.71
2017-09-22T00:38:25.582Z,1013.70
2017-09-22T00:39:20.602Z,1013.72
2017-09-22T00:40:20.629Z,1013.71
2017-09-22T00:41:14.640Z,1013.70
2017-09-22T00:42:15.113Z,1013.73
2017-09-22T00:43:09.740Z,1013.71
2017-09-22T00:44:09.747Z,1013.70
2017-09-22T00:45:09.755Z,1013.66
2017-09-22T00:46:09.814Z,1013.67
2017-09-22T00:47:03.837Z,1013.66
2017-09-22T00:48:03.927Z,1013.64
2017-09-22T00:48:58.904Z,1013.65
2017-09-22T00:49:53.952Z,1013.63
2017-09-22T00:50:53.943Z,1013.64
2017-09-22T00:51:48.953Z,1013.67
2017-09-22T00:52:44.020Z,1013.62
2017-09-22T00:53:44.068Z,1013.63
2017-09-22T00:54:39.084Z,1013.60
2017-09-22T00:55:34.110Z,1013.60
2017-09-22T00:56:40.119Z,1013.60
2017-09-22T00:57:34.461Z,1013.64
2017-09-22T00:58:35.201Z,1013.63
2017-09-22T00:59:35.223Z,1013.60
2017-09-22T01:00:35.233Z,1013.61
2017-09-22T01:01:30.255Z,1013.65
2017-09-22T01:02:24.637Z,1013.60
2017-09-22T01:03:24.335Z,1013.63
2017-09-22T01:04:19.388Z,1013.58
2017-09-22T01:05:19.436Z,1013.58
2017-09-22T01:06:13.440Z,1013.59
2017-09-22T01:07:13.697Z,1013.59
2017-09-22T01:08:08.512Z,1013.58
2017-09-22T01:09:08.580Z,1013.58
2017-09-22T01:10:08.542Z,1013.59
2017-09-22T01:11:14.604Z,1013.61
2017-09-22T01:12:09.864Z,1013.58
2017-09-22T01:13:03.659Z,1013.59
2017-09-22T01:14:03.700Z,1013.59
2017-09-22T01:15:03.743Z,1013.57
2017-09-22T01:15:58.729Z,1013.53
2017-09-22T01:16:52.817Z,1013.48
2017-09-22T01:17:52.832Z,1013.47
2017-09-22T01:18:47.842Z,1013.46
2017-09-22T01:19:42.859Z,1013.48
2017-09-22T01:20:43.875Z,1013.51
2017-09-22T01:21:43.935Z,1013.48
2017-09-22T01:22:44.457Z,1013.48
2017-09-22T01:23:44.014Z,1013.50
2017-09-22T01:24:45.027Z,1013.46
2017-09-22T01:25:46.062Z,1013.47
2017-09-22T01:26:40.104Z,1013.43
2017-09-22T01:27:40.134Z,1013.40
2017-09-22T01:28:35.150Z,1013.42
2017-09-22T01:29:30.397Z,1013.43
2017-09-22T01:30:30.218Z,1013.43
2017-09-22T01:31:25.610Z,1013.40
2017-09-22T01:32:20.254Z,1013.44
2017-09-22T01:33:20.548Z,1013.40
2017-09-22T01:34:15.320Z,1013.40
2017-09-22T01:35:10.345Z,1013.40
2017-09-22T01:36:16.408Z,1013.35
2017-09-22T01:37:16.814Z,1013.35
2017-09-22T01:38:16.491Z,1013.33
2017-09-22T01:39:10.463Z,1013.33
2017-09-22T01:40:10.539Z,1013.32
2017-09-22T01:41:10.539Z,1013.31
2017-09-22T01:42:11.018Z,1013.31
2017-09-22T01:43:10.617Z,1013.32
2017-09-22T01:44:05.643Z,1013.35
2017-09-22T01:45:05.666Z,1013.33
2017-09-22T01:46:05.703Z,1013.33
2017-09-22T01:46:59.727Z,1013.34
2017-09-22T01:48:00.747Z,1013.30
2017-09-22T01:48:55.852Z,1013.32
2017-09-22T01:49:49.830Z,1013.32
2017-09-22T01:50:49.833Z,1013.25
2017-09-22T01:51:44.872Z,1013.28
2017-09-22T01:52:44.876Z,1013.25
2017-09-22T01:53:38.949Z,1013.25
2017-09-22T01:54:39.944Z,1013.24
2017-09-22T01:55:40.999Z,1013.30
2017-09-22T01:56:36.038Z,1013.27
2017-09-22T01:57:30.111Z,1013.28
2017-09-22T01:58:31.105Z,1013.30
2017-09-22T01:59:32.126Z,1013.30
2017-09-22T02:00:32.492Z,1013.28
2017-09-22T02:01:33.197Z,1013.28
2017-09-22T02:02:27.205Z,1013.26
2017-09-22T02:03:27.246Z,1013.30
2017-09-22T02:04:22.249Z,1013.28
2017-09-22T02:05:17.287Z,1013.29
2017-09-22T02:06:17.773Z,1013.31
2017-09-22T02:07:12.350Z,1013.34
2017-09-22T02:08:07.363Z,1013.33
2017-09-22T02:09:08.436Z,1013.33
2017-09-22T02:10:08.827Z,1013.34
2017-09-22T02:11:03.461Z,1013.33
2017-09-22T02:12:09.614Z,1013.35
2017-09-22T02:13:09.528Z,1013.37
2017-09-22T02:14:10.938Z,1013.34
2017-09-22T02:15:04.580Z,1013.35
2017-09-22T02:16:04.633Z,1013.36
2017-09-22T02:16:59.646Z,1013.35
2017-09-22T02:17:54.834Z,1013.37
2017-09-22T02:19:00.711Z,1013.34
2017-09-22T02:19:54.865Z,1013.31
2017-09-22T02:20:54.759Z,1013.32
2017-09-22T02:21:49.765Z,1013.30
2017-09-22T02:22:50.177Z,1013.32
2017-09-22T02:23:43.854Z,1013.30
2017-09-22T02:24:43.857Z,1013.27
2017-09-22T02:25:38.941Z,1013.28
2017-09-22T02:26:33.948Z,1013.28
2017-09-22T02:27:33.958Z,1013.28
2017-09-22T02:28:28.970Z,1013.31
2017-09-22T02:29:24.061Z,1013.34
2017-09-22T02:30:24.074Z,1013.30
2017-09-22T02:31:19.136Z,1013.29
2017-09-22T02:32:14.137Z,1013.32
2017-09-22T02:33:15.154Z,1013.31
2017-09-22T02:34:15.183Z,1013.27
2017-09-22T02:35:15.224Z,1013.26
2017-09-22T02:36:10.246Z,1013.26
2017-09-22T02:37:04.272Z,1013.27
2017-09-22T02:38:04.335Z,1013.27
2017-09-22T02:38:59.343Z,1013.23
2017-09-22T02:39:59.350Z,1013.25
2017-09-22T02:40:53.398Z,1013.25
2017-09-22T02:41:53.435Z,1013.25
2017-09-22T02:42:48.685Z,1013.24
2017-09-22T02:43:43.476Z,1013.21
2017-09-22T02:44:43.537Z,1013.22
2017-09-22T02:45:38.544Z,1013.24
2017-09-22T02:46:33.571Z,1013.23
2017-09-22T02:47:34.837Z,1013.24
2017-09-22T02:48:34.754Z,1013.28
2017-09-22T02:49:34.692Z,1013.26
2017-09-22T02:50:29.728Z,1013.25
2017-09-22T02:51:23.749Z,1013.27
2017-09-22T02:52:24.197Z,1013.28
2017-09-22T02:53:18.828Z,1013.26
2017-09-22T02:54:19.006Z,1013.29
2017-09-22T02:55:12.861Z,1013.27
2017-09-22T02:56:12.911Z,1013.28
2017-09-22T02:57:07.927Z,1013.26
2017-09-22T02:58:02.941Z,1013.28
2017-09-22T02:59:02.961Z,1013.26
2017-09-22T02:59:58.032Z,1013.23
2017-09-22T03:00:58.049Z,1013.22
2017-09-22T03:01:58.053Z,1013.23
2017-09-22T03:03:04.108Z,1013.21
2017-09-22T03:03:59.131Z,1013.19
2017-09-22T03:05:00.211Z,1013.17
2017-09-22T03:06:01.153Z,1013.18
2017-09-22T03:07:01.218Z,1013.17
2017-09-22T03:08:01.236Z,1013.19
2017-09-22T03:08:56.244Z,1013.21
2017-09-22T03:09:50.314Z,1013.21
2017-09-22T03:10:50.346Z,1013.18
2017-09-22T03:11:45.617Z,1013.16
2017-09-22T03:12:40.404Z,1013.18
2017-09-22T03:13:40.427Z,1013.19
2017-09-22T03:14:35.454Z,1013.22
2017-09-22T03:15:30.469Z,1013.19
2017-09-22T03:16:30.537Z,1013.19
2017-09-22T03:17:25.541Z,1013.19
2017-09-22T03:18:20.562Z,1013.17
2017-09-22T03:19:26.566Z,1013.17
2017-09-22T03:20:20.631Z,1013.15
2017-09-22T03:21:20.657Z,1013.15
2017-09-22T03:22:16.185Z,1013.15
2017-09-22T03:23:15.725Z,1013.16
2017-09-22T03:24:09.749Z,1013.16
2017-09-22T03:25:09.758Z,1013.18
2017-09-22T03:26:04.831Z,1013.17
2017-09-22T03:26:59.843Z,1013.23
2017-09-22T03:27:59.834Z,1013.19
2017-09-22T03:28:54.928Z,1013.20
2017-09-22T03:29:49.981Z,1013.22
2017-09-22T03:30:49.967Z,1013.20
2017-09-22T03:31:44.974Z,1013.21
2017-09-22T03:32:40.031Z,1013.21
2017-09-22T03:33:41.054Z,1013.22
2017-09-22T03:34:41.120Z,1013.17
2017-09-22T03:35:41.117Z,1013.21
2017-09-22T03:36:36.147Z,1013.22
2017-09-22T03:37:30.158Z,1013.23
2017-09-22T03:38:30.225Z,1013.21
2017-09-22T03:39:25.443Z,1013.21
2017-09-22T03:40:25.271Z,1013.19
2017-09-22T03:41:19.311Z,1013.20
2017-09-22T03:42:19.303Z,1013.20
2017-09-22T03:43:14.620Z,1013.17
2017-09-22T03:44:09.407Z,1013.14
2017-09-22T03:45:09.433Z,1013.16
2017-09-22T03:46:04.446Z,1013.16
2017-09-22T03:46:59.473Z,1013.16
2017-09-22T03:48:00.686Z,1013.14
2017-09-22T03:49:00.542Z,1013.16
2017-09-22T03:50:00.548Z,1013.16
2017-09-22T03:50:55.630Z,1013.15
2017-09-22T03:51:49.633Z,1013.20
2017-09-22T03:52:49.645Z,1013.16
2017-09-22T03:53:44.717Z,1013.19
2017-09-22T03:54:44.730Z,1013.19
2017-09-22T03:55:38.747Z,1013.15
2017-09-22T03:56:38.948Z,1013.20
2017-09-22T03:57:33.807Z,1013.20
2017-09-22T03:58:28.849Z,1013.20
2017-09-22T03:59:28.861Z,1013.17
2017-09-22T04:00:23.873Z,1013.20
2017-09-22T04:01:24.016Z,1013.20
2017-09-22T04:02:24.001Z,1013.20
2017-09-22T04:03:24.012Z,1013.20
2017-09-22T04:04:18.031Z,1013.21
2017-09-22T04:05:18.039Z,1013.18
2017-09-22T04:06:13.076Z,1013.22
2017-09-22T04:07:08.132Z,1013.21
2017-09-22T04:08:09.146Z,1013.20
2017-09-22T04:09:09.159Z,1013.25
2017-09-22T04:10:09.215Z,1013.23
2017-09-22T04:11:04.232Z,1013.23
2017-09-22T04:11:58.254Z,1013.24
2017-09-22T04:12:58.756Z,1013.22
2017-09-22T04:13:53.360Z,1013.19
2017-09-22T04:14:53.350Z,1013.20
2017-09-22T04:15:47.378Z,1013.15
2017-09-22T04:16:47.387Z,1013.19
2017-09-22T04:17:42.732Z,1013.17
2017-09-22T04:18:37.466Z,1013.18
2017-09-22T04:19:37.535Z,1013.20
2017-09-22T04:20:32.527Z,1013.18
2017-09-22T04:21:27.555Z,1013.20
2017-09-22T04:22:28.608Z,1013.18
2017-09-22T04:23:28.638Z,1013.21
2017-09-22T04:24:28.643Z,1013.19
2017-09-22T04:25:23.717Z,1013.16
2017-09-22T04:26:17.734Z,1013.18
2017-09-22T04:27:17.740Z,1013.22
2017-09-22T04:28:12.750Z,1013.19
2017-09-22T04:29:12.791Z,1013.20
2017-09-22T04:30:06.860Z,1013.17
2017-09-22T04:31:06.926Z,1013.18
2017-09-22T04:32:01.859Z,1013.17
2017-09-22T04:32:57.112Z,1013.18
2017-09-22T04:33:56.946Z,1013.17
2017-09-22T04:34:52.026Z,1013.19
2017-09-22T04:35:47.035Z,1013.20
2017-09-22T04:36:53.047Z,1013.20
2017-09-22T04:37:47.059Z,1013.24
2017-09-22T04:38:47.113Z,1013.27
2017-09-22T04:39:42.133Z,1013.26
2017-09-22T04:40:42.154Z,1013.26
2017-09-22T04:41:36.205Z,1013.26
2017-09-22T04:42:36.248Z,1013.24
2017-09-22T04:43:31.258Z,1013.20
2017-09-22T04:44:31.266Z,1013.26
2017-09-22T04:45:31.318Z,1013.24
2017-09-22T04:46:31.340Z,1013.24
2017-09-22T04:47:25.349Z,1013.24
2017-09-22T04:48:25.439Z,1013.27
2017-09-22T04:49:20.442Z,1013.28
2017-09-22T04:50:15.824Z,1013.27
2017-09-22T04:51:15.510Z,1013.30
2017-09-22T04:52:10.537Z,1013.31
2017-09-22T04:53:10.546Z,1013.31
2017-09-22T04:54:10.570Z,1013.31
2017-09-22T04:55:11.027Z,1013.31
2017-09-22T04:56:04.631Z,1013.29
2017-09-22T04:57:04.653Z,1013.29
2017-09-22T04:57:59.718Z,1013.30
2017-09-22T04:58:54.734Z,1013.29
2017-09-22T04:59:54.756Z,1013.32
2017-09-22T05:00:49.789Z,1013.34
2017-09-22T05:01:44.804Z,1013.35
2017-09-22T05:02:51.207Z,1013.35
2017-09-22T05:03:44.870Z,1013.35
2017-09-22T05:04:44.869Z,1013.33
2017-09-22T05:05:40.038Z,1013.28
2017-09-22T05:06:39.965Z,1013.33
2017-09-22T05:07:39.960Z,1013.34
2017-09-22T05:08:40.032Z,1013.31
2017-09-22T05:09:40.055Z,1013.31
2017-09-22T05:10:40.058Z,1013.33
2017-09-22T05:11:40.134Z,1013.36
2017-09-22T05:12:40.140Z,1013.37
2017-09-22T05:13:40.161Z,1013.37
2017-09-22T05:14:40.168Z,1013.35
2017-09-22T05:15:40.241Z,1013.33
2017-09-22T05:16:40.244Z,1013.37
2017-09-22T05:17:40.270Z,1013.38
2017-09-22T05:18:40.279Z,1013.40
2017-09-22T05:19:40.311Z,1013.35
2017-09-22T05:20:40.365Z,1013.39
2017-09-22T05:21:40.611Z,1013.38
2017-09-22T05:22:40.503Z,1013.39
2017-09-22T05:23:40.458Z,1013.43
2017-09-22T05:24:40.456Z,1013.43
2017-09-22T05:25:40.515Z,1013.41
2017-09-22T05:26:40.542Z,1013.39
2017-09-22T05:27:40.546Z,1013.42
2017-09-22T05:28:40.707Z,1013.45
2017-09-22T05:29:40.639Z,1013.42
2017-09-22T05:30:40.641Z,1013.41
2017-09-22T05:31:40.660Z,1013.42
2017-09-22T05:32:40.713Z,1013.43
2017-09-22T05:33:40.753Z,1013.47
2017-09-22T05:34:40.757Z,1013.50
2017-09-22T05:35:40.827Z,1013.47
2017-09-22T05:36:40.834Z,1013.48
2017-09-22T05:37:40.848Z,1013.50
2017-09-22T05:38:40.863Z,1013.51
2017-09-22T05:39:40.889Z,1013.51
2017-09-22T05:40:47.087Z,1013.50
2017-09-22T05:41:41.948Z,1013.55
2017-09-22T05:42:35.970Z,1013.53
2017-09-22T05:43:36.049Z,1013.52
2017-09-22T05:44:31.045Z,1013.57
2017-09-22T05:45:31.110Z,1013.53
2017-09-22T05:46:32.482Z,1013.53
2017-09-22T05:47:32.142Z,1013.58
2017-09-22T05:48:32.495Z,1013.58
2017-09-22T05:49:32.226Z,1013.61
2017-09-22T05:50:32.246Z,1013.60
2017-09-22T05:51:32.256Z,1013.64
2017-09-22T05:52:32.297Z,1013.66
2017-09-22T05:53:32.313Z,1013.68
2017-09-22T05:54:32.349Z,1013.67
2017-09-22T05:55:32.358Z,1013.70
2017-09-22T05:56:38.372Z,1013.67
2017-09-22T05:57:38.572Z,1013.69
2017-09-22T05:58:39.450Z,1013.69
2017-09-22T05:59:40.507Z,1013.71
2017-09-22T06:00:40.531Z,1013.69
2017-09-22T06:01:35.556Z,1013.73
2017-09-22T06:02:36.560Z,1013.69
2017-09-22T06:03:36.664Z,1013.71
2017-09-22T06:04:31.657Z,1013.71
2017-09-22T06:05:26.708Z,1013.73
2017-09-22T06:06:26.733Z,1013.75
2017-09-22T06:07:21.953Z,1013.71
2017-09-22T06:08:16.766Z,1013.75
2017-09-22T06:09:10.865Z,1013.76
2017-09-22T06:10:16.836Z,1013.76
2017-09-22T06:11:10.865Z,1013.72
2017-09-22T06:12:11.950Z,1013.71
2017-09-22T06:13:06.950Z,1013.68
2017-09-22T06:14:06.963Z,1013.69
2017-09-22T06:15:07.059Z,1013.65
2017-09-22T06:16:07.040Z,1013.64
2017-09-22T06:17:13.074Z,1013.63
2017-09-22T06:18:08.124Z,1013.63
2017-09-22T06:19:08.173Z,1013.61
2017-09-22T06:20:08.204Z,1013.60
2017-09-22T06:21:02.223Z,1013.61
2017-09-22T06:22:02.240Z,1013.61
2017-09-22T06:22:57.269Z,1013.62
2017-09-22T06:23:52.306Z,1013.59
2017-09-22T06:24:46.333Z,1013.62
2017-09-22T06:25:46.733Z,1013.63
2017-09-22T06:26:41.805Z,1013.61
2017-09-22T06:27:41.453Z,1013.57
2017-09-22T06:28:41.531Z,1013.60
2017-09-22T06:29:41.526Z,1013.60
2017-09-22T06:30:35.549Z,1013.63
2017-09-22T06:31:35.636Z,1013.67
2017-09-22T06:32:30.717Z,1013.62
2017-09-22T06:33:25.647Z,1013.63
2017-09-22T06:34:19.727Z,1013.65
2017-09-22T06:35:19.735Z,1013.69
2017-09-22T06:36:14.749Z,1013.66
2017-09-22T06:37:09.825Z,1013.67
2017-09-22T06:38:10.012Z,1013.68
2017-09-22T06:39:04.856Z,1013.68
2017-09-22T06:39:59.935Z,1013.64
2017-09-22T06:40:54.023Z,1013.63
2017-09-22T06:41:55.100Z,1013.68
2017-09-22T06:42:50.166Z,1013.62
2017-09-22T06:43:50.050Z,1013.64
2017-09-22T06:44:50.368Z,1013.64
2017-09-22T06:45:50.145Z,1013.64
2017-09-22T06:46:50.313Z,1013.68
2017-09-22T06:47:50.300Z,1013.68
2017-09-22T06:48:50.265Z,1013.67
2017-09-22T06:49:50.260Z,1013.69
2017-09-22T06:50:50.317Z,1013.70
2017-09-22T06:51:50.361Z,1013.66
2017-09-22T06:52:56.827Z,1013.67
2017-09-22T06:53:51.513Z,1013.69
2017-09-22T06:54:51.823Z,1013.63
2017-09-22T06:55:51.577Z,1013.62
2017-09-22T06:56:45.544Z,1013.68
2017-09-22T06:57:45.581Z,1013.67
2017-09-22T06:58:40.644Z,1013.67
2017-09-22T06:59:35.812Z,1013.69
2017-09-22T07:00:29.950Z,1013.71
2017-09-22T07:01:29.977Z,1013.69
2017-09-22T07:02:24.959Z,1013.75
2017-09-22T07:03:25.056Z,1013.76
2017-09-22T07:04:25.154Z,1013.75
2017-09-22T07:05:25.238Z,1013.69
2017-09-22T07:06:19.281Z,1013.71
2017-09-22T07:07:19.441Z,1013.73
2017-09-22T07:08:14.055Z,1013.73
2017-09-22T07:09:09.467Z,1013.73
2017-09-22T07:10:03.081Z,1013.73
2017-09-22T07:11:03.182Z,1013.74
2017-09-22T07:11:58.177Z,1013.76
2017-09-22T07:12:53.426Z,1013.76
2017-09-22T07:13:53.260Z,1013.76
2017-09-22T07:14:48.298Z,1013.78
2017-09-22T07:15:43.475Z,1013.76
2017-09-22T07:16:37.369Z,1013.80
2017-09-22T07:17:38.446Z,1013.83
2017-09-22T07:18:33.470Z,1013.80
2017-09-22T07:19:33.516Z,1013.82
2017-09-22T07:20:33.545Z,1013.85
2017-09-22T07:21:33.667Z,1013.84
2017-09-22T07:22:33.661Z,1013.82
2017-09-22T07:23:33.651Z,1013.84
2017-09-22T07:24:33.929Z,1013.76
2017-09-22T07:25:33.925Z,1013.77
2017-09-22T07:26:34.196Z,1013.75
2017-09-22T07:27:34.070Z,1013.78
2017-09-22T07:28:34.129Z,1013.78
2017-09-22T07:29:34.235Z,1013.79
2017-09-22T07:30:40.375Z,1013.82
2017-09-22T07:31:34.977Z,1013.78
2017-09-22T07:32:29.039Z,1013.79
2017-09-22T07:33:29.059Z,1013.83
2017-09-22T07:34:24.156Z,1013.80
2017-09-22T07:35:19.152Z,1013.83
2017-09-22T07:36:19.170Z,1013.87
2017-09-22T07:37:14.297Z,1013.88
2017-09-22T07:38:09.733Z,1013.81
2017-09-22T07:39:03.336Z,1013.85
2017-09-22T07:40:03.424Z,1013.86
2017-09-22T07:40:58.377Z,1013.89
2017-09-22T07:41:53.883Z,1013.92
2017-09-22T07:42:53.849Z,1013.90
2017-09-22T07:43:48.974Z,1013.89
2017-09-22T07:44:42.624Z,1013.87
2017-09-22T07:45:36.810Z,1013.88
2017-09-22T07:46:25.838Z,1013.87
2017-09-22T07:47:13.771Z,1013.91
2017-09-22T07:48:07.954Z,1013.89
2017-09-22T07:49:03.008Z,1013.87
2017-09-22T07:49:58.139Z,1013.90
2017-09-22T07:50:52.233Z,1013.90
2017-09-22T07:51:46.378Z,1013.91
2017-09-22T07:52:35.041Z,1013.93
2017-09-22T07:53:23.495Z,1013.94
2017-09-22T07:54:12.171Z,1013.94
2017-09-22T07:55:00.198Z,1013.92
2017-09-22T07:56:00.689Z,1013.91
2017-09-22T07:56:54.393Z,1013.95
2017-09-22T07:57:43.329Z,1013.92
2017-09-22T07:58:37.376Z,1013.93
2017-09-22T07:59:25.456Z,1013.95
2017-09-22T08:00:13.490Z,1013.99
2017-09-22T08:01:07.559Z,1013.93
2017-09-22T08:02:01.667Z,1014.01
2017-09-22T08:02:55.884Z,1013.94
2017-09-22T08:03:55.676Z,1013.93
2017-09-22T08:04:44.965Z,1013.98
2017-09-22T08:05:38.988Z,1014.00
2017-09-22T08:06:28.068Z,1013.95
2017-09-22T08:07:16.190Z,1013.99
2017-09-22T08:08:11.021Z,1014.01
2017-09-22T08:09:00.034Z,1013.99
2017-09-22T08:09:54.064Z,1013.99
2017-09-22T08:10:54.115Z,1014.00
2017-09-22T08:11:48.625Z,1014.02
2017-09-22T08:12:37.229Z,1014.02
2017-09-22T08:13:32.409Z,1014.04
2017-09-22T08:14:27.356Z,1013.99
2017-09-22T08:15:22.858Z,1014.00
2017-09-22T08:16:16.809Z,1013.99
2017-09-22T08:17:16.778Z,1013.99
2017-09-22T08:18:04.842Z,1014.01
2017-09-22T08:18:53.896Z,1014.00
2017-09-22T08:19:47.961Z,1014.02
2017-09-22T08:20:42.934Z,1014.03
2017-09-22T08:21:43.048Z,1013.97
2017-09-22T08:22:31.140Z,1013.97
2017-09-22T08:23:31.147Z,1013.97
2017-09-22T08:24:20.252Z,1014.00
2017-09-22T08:25:14.223Z,1014.00
2017-09-22T08:26:09.392Z,1014.01
2017-09-22T08:27:04.445Z,1014.00
2017-09-22T08:27:58.487Z,1013.98
2017-09-22T08:28:46.372Z,1013.98
2017-09-22T08:29:40.181Z,1013.97
2017-09-22T08:30:40.326Z,1013.95
2017-09-22T08:31:35.280Z,1013.97
2017-09-22T08:32:29.454Z,1013.98
2017-09-22T08:33:24.383Z,1013.99
2017-09-22T08:34:19.459Z,1013.94
2017-09-22T08:35:14.479Z,1013.94
2017-09-22T08:36:09.688Z,1013.92
2017-09-22T08:36:58.588Z,1013.93
2017-09-22T08:37:47.654Z,1013.93
2017-09-22T08:38:41.732Z,1013.89
2017-09-22T08:39:36.770Z,1013.93
2017-09-22T08:40:36.818Z,1013.89
2017-09-22T08:41:30.869Z,1013.99
2017-09-22T08:42:25.351Z,1013.98
2017-09-22T08:43:18.968Z,1014.00
2017-09-22T08:44:20.068Z,1013.95
2017-09-22T08:45:20.069Z,1013.92
2017-09-22T08:46:20.190Z,1013.94
2017-09-22T08:47:20.628Z,1013.99
2017-09-22T08:48:15.228Z,1013.94
2017-09-22T08:49:03.271Z,1013.95
2017-09-22T08:50:03.347Z,1013.92
2017-09-22T08:50:51.366Z,1013.92
2017-09-22T08:51:40.645Z,1013.93
2017-09-22T08:52:34.470Z,1013.91
2017-09-22T08:53:28.544Z,1013.94
2017-09-22T08:54:22.584Z,1013.98
2017-09-22T08:55:16.759Z,1014.01
2017-09-22T08:56:10.683Z,1014.00
2017-09-22T08:56:58.910Z,1013.97
2017-09-22T08:57:47.956Z,1013.98
2017-09-22T08:58:47.825Z,1013.97
2017-09-22T08:59:37.225Z,1013.97
2017-09-22T09:00:31.408Z,1013.97
2017-09-22T09:01:26.400Z,1013.98
2017-09-22T09:02:20.558Z,1014.07
2017-09-22T09:03:15.093Z,1014.06
2017-09-22T09:04:09.277Z,1014.09
2017-09-22T09:05:09.584Z,1014.13
2017-09-22T09:06:04.284Z,1014.07
2017-09-22T09:06:59.366Z,1014.02
2017-09-22T09:07:59.424Z,1014.07
2017-09-22T09:08:53.731Z,1014.08
2017-09-22T09:09:42.849Z,1014.03
2017-09-22T09:10:36.940Z,1014.03
2017-09-22T09:11:31.030Z,1014.08
2017-09-22T09:12:26.088Z,1014.07
2017-09-22T09:13:20.088Z,1014.06
2017-09-22T09:14:09.220Z,1014.07
2017-09-22T09:15:04.128Z,1014.00
2017-09-22T09:15:58.281Z,1014.01
2017-09-22T09:16:53.336Z,1014.02
2017-09-22T09:17:47.342Z,1013.97
2017-09-22T09:18:35.368Z,1013.96
2017-09-22T09:19:36.434Z,1013.95
2017-09-22T09:20:30.454Z,1013.99
2017-09-22T09:21:18.509Z,1013.94
2017-09-22T09:22:12.626Z,1013.94
2017-09-22T09:23:06.691Z,1013.95
2017-09-22T09:24:00.771Z,1013.96
2017-09-22T09:24:55.378Z,1013.97
2017-09-22T09:25:49.527Z,1013.97
2017-09-22T09:26:43.836Z,1013.96
2017-09-22T09:27:37.971Z,1014.00
2017-09-22T09:28:31.649Z,1013.98
2017-09-22T09:29:20.733Z,1014.00
2017-09-22T09:30:14.916Z,1013.96
2017-09-22T09:31:03.760Z,1013.98
2017-09-22T09:31:52.832Z,1013.99
2017-09-22T09:32:52.938Z,1013.96
2017-09-22T09:33:42.329Z,1013.96
2017-09-22T09:34:36.335Z,1013.97
2017-09-22T09:35:36.383Z,1013.99
2017-09-22T09:36:30.369Z,1013.96
2017-09-22T09:37:24.773Z,1013.97
2017-09-22T09:38:25.520Z,1013.98
2017-09-22T09:39:14.625Z,1013.99
2017-09-22T09:40:03.689Z,1013.99
2017-09-22T09:40:52.740Z,1014.00
2017-09-22T09:41:41.817Z,1014.00
2017-09-22T09:42:30.840Z,1014.02
2017-09-22T09:43:19.668Z,1014.02
2017-09-22T09:44:19.897Z,1013.99
2017-09-22T09:45:13.986Z,1014.00
2017-09-22T09:46:08.174Z,1013.99
2017-09-22T09:47:08.994Z,1014.01
2017-09-22T09:48:09.058Z,1013.99
2017-09-22T09:49:04.025Z,1013.97
2017-09-22T09:49:57.994Z,1014.02
2017-09-22T09:50:53.342Z,1013.95
2017-09-22T09:51:47.301Z,1013.98
2017-09-22T09:52:47.050Z,1014.01
2017-09-22T09:53:36.307Z,1013.99
2017-09-22T09:54:30.515Z,1014.01
2017-09-22T09:55:30.514Z,1013.99
2017-09-22T09:56:19.517Z,1013.99
2017-09-22T09:57:13.686Z,1014.02
2017-09-22T09:58:08.701Z,1014.00
2017-09-22T09:59:03.846Z,1014.05
2017-09-22T09:59:57.664Z,1014.07
2017-09-22T10:00:51.966Z,1014.07
2017-09-22T10:01:40.900Z,1014.09
2017-09-22T10:02:35.979Z,1014.07
2017-09-22T10:03:30.815Z,1014.06
2017-09-22T10:04:25.115Z,1014.05
2017-09-22T10:05:24.834Z,1014.04
2017-09-22T10:06:19.265Z,1014.04
2017-09-22T10:07:19.295Z,1014.02
2017-09-22T10:08:08.318Z,1014.00
2017-09-22T10:09:02.457Z,1013.98
2017-09-22T10:09:57.425Z,1014.00
2017-09-22T10:10:57.474Z,1013.99
2017-09-22T10:11:51.613Z,1014.00
2017-09-22T10:12:40.704Z,1013.97
2017-09-22T10:13:35.601Z,1013.96
2017-09-22T10:14:29.506Z,1014.00
2017-09-22T10:15:18.798Z,1013.97
2017-09-22T10:16:12.807Z,1013.99
2017-09-22T10:17:01.963Z,1013.96
2017-09-22T10:17:50.950Z,1013.95
2017-09-22T10:18:44.970Z,1013.96
2017-09-22T10:19:38.983Z,1013.94
2017-09-22T10:20:28.183Z,1013.96
2017-09-22T10:21:17.241Z,1013.95
2017-09-22T10:22:06.362Z,1013.94
2017-09-22T10:23:00.362Z,1013.91
2017-09-22T10:23:55.329Z,1013.93
2017-09-22T10:24:50.484Z,1013.95
2017-09-22T10:25:39.432Z,1013.92
2017-09-22T10:26:28.507Z,1013.91
2017-09-22T10:27:17.649Z,1013.93
2017-09-22T10:28:11.696Z,1013.92
2017-09-22T10:29:06.687Z,1013.92
2017-09-22T10:30:01.712Z,1013.90
2017-09-22T10:30:49.778Z,1013.87
2017-09-22T10:31:43.944Z,1013.84
2017-09-22T10:32:37.974Z,1013.82
2017-09-22T10:33:31.962Z,1013.79
2017-09-22T10:34:32.050Z,1013.82
2017-09-22T10:35:21.036Z,1013.79
2017-09-22T10:36:09.197Z,1013.76
2017-09-22T10:37:03.252Z,1013.77
2017-09-22T10:37:57.405Z,1013.75
2017-09-22T10:38:51.339Z,1013.76
2017-09-22T10:39:46.418Z,1013.79
2017-09-22T10:40:40.506Z,1013.81
2017-09-22T10:41:28.455Z,1013.84
2017-09-22T10:42:17.533Z,1013.85
2017-09-22T10:43:12.639Z,1013.85
2017-09-22T10:44:01.715Z,1013.86
2017-09-22T10:44:56.768Z,1013.87
2017-09-22T10:45:45.783Z,1013.88
2017-09-22T10:46:39.891Z,1013.97
2017-09-22T10:47:34.930Z,1013.93
2017-09-22T10:48:34.984Z,1013.92
2017-09-22T10:49:24.026Z,1013.93
2017-09-22T10:50:18.115Z,1013.93
2017-09-22T10:51:06.156Z,1013.94
2017-09-22T10:51:54.249Z,1013.94
2017-09-22T10:52:48.234Z,1013.91
2017-09-22T10:53:37.442Z,1013.94
2017-09-22T10:54:32.369Z,1013.93
2017-09-22T10:55:21.443Z,1013.94
2017-09-22T10:56:15.560Z,1013.93
2017-09-22T10:57:21.551Z,1013.97
2017-09-22T10:58:15.663Z,1013.93
2017-09-22T10:59:09.709Z,1013.95
2017-09-22T11:00:03.750Z,1013.97
2017-09-22T11:00:57.760Z,1013.92
2017-09-22T11:01:51.870Z,1013.94
2017-09-22T11:02:57.876Z,1014.00
2017-09-22T11:03:46.971Z,1013.96
2017-09-22T11:04:36.073Z,1013.95
2017-09-22T11:05:30.053Z,1013.89
2017-09-22T11:06:24.163Z,1013.93
2017-09-22T11:07:18.168Z,1013.94
2017-09-22T11:08:12.278Z,1013.92
2017-09-22T11:09:00.303Z,1013.89
2017-09-22T11:09:55.416Z,1013.89
2017-09-22T11:10:55.435Z,1013.91
2017-09-22T11:11:50.501Z,1013.91
2017-09-22T11:12:50.298Z,1013.94
2017-09-22T11:13:39.508Z,1013.97
2017-09-22T11:14:33.496Z,1013.96
2017-09-22T11:15:22.982Z,1013.95
2017-09-22T11:16:17.767Z,1014.01
2017-09-22T11:17:12.792Z,1014.00
2017-09-22T11:18:01.892Z,1014.00
2017-09-22T11:19:01.926Z,1014.09
2017-09-22T11:19:56.973Z,1014.08
2017-09-22T11:20:45.055Z,1014.03
2017-09-22T11:21:39.094Z,1014.05
2017-09-22T11:22:33.161Z,1014.02